sensor_id;sensor_type;location;lat;lon;timestamp;pressure;altitude;pressure_sealevel;temperature;humidity
3440;BME280;1733;42.286;22.690;2023-02-28T07:02:50;96206.34;;;8.71;100.00
3440;BME280;1733;42.286;22.690;2023-02-28T07:05:17;96227.59;;;9.01;100.00
3440;BME280;1733;42.286;22.690;2023-02-28T07:07:43;96234.19;;;9.17;100.00
3440;BME280;1733;42.286;22.690;2023-02-28T07:10:12;96229.31;;;9.21;100.00
3440;BME280;1733;42.286;22.690;2023-02-28T07:23:13;96189.22;;;9.45;100.00
3440;BME280;1733;42.286;22.690;2023-02-28T07:25:40;96239.16;;;9.89;100.00
3440;BME280;1733;42.286;22.690;2023-02-28T07:28:07;96235.25;;;9.98;100.00
3440;BME280;1733;42.286;22.690;2023-02-28T07:30:33;96227.38;;;9.98;100.00
3440;BME280;1733;42.286;22.690;2023-02-28T07:33:00;96222.00;;;10.11;100.00
3440;BME280;1733;42.286;22.690;2023-02-28T07:35:27;96233.72;;;10.08;100.00
3440;BME280;1733;42.286;22.690;2023-02-28T07:37:54;96236.00;;;10.30;100.00
3440;BME280;1733;42.286;22.690;2023-02-28T07:40:22;96230.81;;;10.42;100.00
3440;BME280;1733;42.286;22.690;2023-02-28T07:42:49;96238.03;;;10.28;100.00
3440;BME280;1733;42.286;22.690;2023-02-28T07:45:16;96237.19;;;10.34;100.00
3440;BME280;1733;42.286;22.690;2023-02-28T07:47:44;96243.00;;;10.36;100.00
3440;BME280;1733;42.286;22.690;2023-02-28T07:50:13;96239.91;;;10.64;100.00
3440;BME280;1733;42.286;22.690;2023-02-28T07:52:41;96234.47;;;10.96;100.00
3440;BME280;1733;42.286;22.690;2023-02-28T07:55:09;96237.69;;;10.98;100.00
3440;BME280;1733;42.286;22.690;2023-02-28T07:57:37;96233.50;;;10.90;100.00
3440;BME280;1733;42.286;22.690;2023-02-28T08:00:06;96234.09;;;11.10;100.00
3440;BME280;1733;42.286;22.690;2023-02-28T08:02:35;96233.28;;;11.40;100.00
3440;BME280;1733;42.286;22.690;2023-02-28T08:05:02;96238.44;;;11.46;100.00
3440;BME280;1733;42.286;22.690;2023-02-28T08:07:29;96233.13;;;11.77;100.00
3440;BME280;1733;42.286;22.690;2023-02-28T08:09:56;96238.13;;;11.85;100.00
3440;BME280;1733;42.286;22.690;2023-02-28T08:12:22;96241.72;;;12.02;100.00
3440;BME280;1733;42.286;22.690;2023-02-28T08:14:51;96239.09;;;12.14;100.00
3440;BME280;1733;42.286;22.690;2023-02-28T08:17:18;96233.44;;;12.10;100.00
3440;BME280;1733;42.286;22.690;2023-02-28T08:19:45;96239.31;;;12.01;100.00
3440;BME280;1733;42.286;22.690;2023-02-28T08:22:12;96227.84;;;11.95;100.00
3440;BME280;1733;42.286;22.690;2023-02-28T08:24:41;96227.63;;;12.08;100.00
3440;BME280;1733;42.286;22.690;2023-02-28T08:27:08;96230.50;;;12.42;100.00
3440;BME280;1733;42.286;22.690;2023-02-28T08:29:36;96230.91;;;12.62;100.00
3440;BME280;1733;42.286;22.690;2023-02-28T08:32:05;96233.56;;;12.50;100.00
3440;BME280;1733;42.286;22.690;2023-02-28T08:34:32;96232.25;;;12.88;100.00
3440;BME280;1733;42.286;22.690;2023-02-28T08:36:59;96231.53;;;13.04;100.00
3440;BME280;1733;42.286;22.690;2023-02-28T08:39:26;96228.16;;;13.09;100.00
3440;BME280;1733;42.286;22.690;2023-02-28T08:41:52;96223.41;;;13.35;100.00
3440;BME280;1733;42.286;22.690;2023-02-28T08:44:19;96226.56;;;13.65;100.00
3440;BME280;1733;42.286;22.690;2023-02-28T08:46:46;96222.31;;;14.15;100.00
3440;BME280;1733;42.286;22.690;2023-02-28T08:49:14;96231.94;;;14.37;100.00
3440;BME280;1733;42.286;22.690;2023-02-28T08:51:41;96232.91;;;14.48;100.00
3440;BME280;1733;42.286;22.690;2023-02-28T08:54:09;96232.06;;;14.64;100.00
3440;BME280;1733;42.286;22.690;2023-02-28T08:56:38;96239.72;;;14.83;100.00
3440;BME280;1733;42.286;22.690;2023-02-28T08:59:05;96234.03;;;14.35;100.00
3440;BME280;1733;42.286;22.690;2023-02-28T09:01:32;96232.19;;;14.02;100.00
3440;BME280;1733;42.286;22.690;2023-02-28T09:03:59;96223.97;;;13.99;100.00
3440;BME280;1733;42.286;22.690;2023-02-28T09:06:28;96216.25;;;14.14;100.00
3440;BME280;1733;42.286;22.690;2023-02-28T09:08:56;96214.47;;;14.03;100.00
3440;BME280;1733;42.286;22.690;2023-02-28T09:11:25;96224.59;;;13.89;100.00
3440;BME280;1733;42.286;22.690;2023-02-28T09:13:52;96231.94;;;13.70;100.00
3440;BME280;1733;42.286;22.690;2023-02-28T09:16:19;96226.97;;;13.91;100.00
3440;BME280;1733;42.286;22.690;2023-02-28T09:18:46;96221.94;;;13.89;100.00
3440;BME280;1733;42.286;22.690;2023-02-28T09:21:14;96225.72;;;13.93;100.00
3440;BME280;1733;42.286;22.690;2023-02-28T09:23:45;96230.28;;;13.98;100.00
3440;BME280;1733;42.286;22.690;2023-02-28T09:26:13;96220.19;;;13.95;100.00
3440;BME280;1733;42.286;22.690;2023-02-28T09:28:40;96221.16;;;14.05;100.00
3440;BME280;1733;42.286;22.690;2023-02-28T09:31:12;96223.38;;;13.97;100.00
3440;BME280;1733;42.286;22.690;2023-02-28T09:33:40;96227.06;;;14.29;100.00
3440;BME280;1733;42.286;22.690;2023-02-28T09:36:07;96228.16;;;14.67;100.00
3440;BME280;1733;42.286;22.690;2023-02-28T09:38:34;96228.84;;;14.79;100.00
3440;BME280;1733;42.286;22.690;2023-02-28T09:41:09;96226.63;;;14.37;100.00
3440;BME280;1733;42.286;22.690;2023-02-28T09:43:40;96225.66;;;14.44;100.00
3440;BME280;1733;42.286;22.690;2023-02-28T09:46:14;96221.22;;;14.27;100.00
3440;BME280;1733;42.286;22.690;2023-02-28T09:48:47;96220.72;;;14.30;100.00
3440;BME280;1733;42.286;22.690;2023-02-28T09:51:27;96223.25;;;14.42;100.00
3440;BME280;1733;42.286;22.690;2023-02-28T09:53:56;96220.78;;;14.52;100.00
3440;BME280;1733;42.286;22.690;2023-02-28T09:56:30;96213.94;;;13.84;100.00
3440;BME280;1733;42.286;22.690;2023-02-28T09:59:01;96207.53;;;13.80;100.00
3440;BME280;1733;42.286;22.690;2023-02-28T10:01:35;96203.44;;;13.72;100.00
3440;BME280;1733;42.286;22.690;2023-02-28T10:04:07;96206.88;;;13.27;100.00
3440;BME280;1733;42.286;22.690;2023-02-28T10:06:43;96194.59;;;12.52;100.00
3440;BME280;1733;42.286;22.690;2023-02-28T10:09:17;96191.13;;;12.92;100.00
3440;BME280;1733;42.286;22.690;2023-02-28T10:11:48;96188.28;;;13.34;100.00
3440;BME280;1733;42.286;22.690;2023-02-28T10:14:18;96186.88;;;13.77;100.00
3440;BME280;1733;42.286;22.690;2023-02-28T10:16:48;96183.81;;;14.02;100.00
3440;BME280;1733;42.286;22.690;2023-02-28T10:19:22;96182.59;;;14.26;100.00
3440;BME280;1733;42.286;22.690;2023-02-28T10:21:55;96177.06;;;14.28;100.00
3440;BME280;1733;42.286;22.690;2023-02-28T10:24:28;96178.03;;;14.22;100.00
3440;BME280;1733;42.286;22.690;2023-02-28T10:27:00;96177.91;;;14.50;100.00
3440;BME280;1733;42.286;22.690;2023-02-28T10:29:31;96176.91;;;14.78;100.00
3440;BME280;1733;42.286;22.690;2023-02-28T10:32:01;96177.03;;;14.88;99.97
3440;BME280;1733;42.286;22.690;2023-02-28T10:34:29;96170.94;;;14.88;99.33
3440;BME280;1733;42.286;22.690;2023-02-28T10:36:56;96165.31;;;14.79;99.93
3440;BME280;1733;42.286;22.690;2023-02-28T10:39:37;96162.88;;;15.00;97.80
3440;BME280;1733;42.286;22.690;2023-02-28T10:42:19;96158.00;;;15.13;90.47
3440;BME280;1733;42.286;22.690;2023-02-28T10:44:47;96154.56;;;14.91;89.17
3440;BME280;1733;42.286;22.690;2023-02-28T10:47:16;96148.47;;;15.17;86.62
3440;BME280;1733;42.286;22.690;2023-02-28T10:49:47;96144.81;;;15.51;85.60
3440;BME280;1733;42.286;22.690;2023-02-28T10:52:33;96149.81;;;15.74;83.55
3440;BME280;1733;42.286;22.690;2023-02-28T10:55:15;96140.69;;;15.33;81.69
3440;BME280;1733;42.286;22.690;2023-02-28T10:57:43;96125.78;;;15.00;82.79
3440;BME280;1733;42.286;22.690;2023-02-28T11:00:15;96126.47;;;14.90;84.10
3440;BME280;1733;42.286;22.690;2023-02-28T11:02:42;96133.81;;;14.83;83.59
3440;BME280;1733;42.286;22.690;2023-02-28T11:05:27;96125.72;;;14.95;85.65
3440;BME280;1733;42.286;22.690;2023-02-28T11:07:55;96130.97;;;14.89;85.32
3440;BME280;1733;42.286;22.690;2023-02-28T11:10:26;96124.34;;;14.65;87.64
3440;BME280;1733;42.286;22.690;2023-02-28T11:12:57;96118.00;;;14.66;84.47
3440;BME280;1733;42.286;22.690;2023-02-28T11:15:27;96115.22;;;14.78;84.51
3440;BME280;1733;42.286;22.690;2023-02-28T11:17:56;96124.13;;;14.94;83.24
3440;BME280;1733;42.286;22.690;2023-02-28T11:20:26;96117.53;;;15.23;85.05
3440;BME280;1733;42.286;22.690;2023-02-28T11:22:54;96108.69;;;15.39;84.48
3440;BME280;1733;42.286;22.690;2023-02-28T11:25:25;96115.41;;;15.20;82.94
3440;BME280;1733;42.286;22.690;2023-02-28T11:27:54;96110.97;;;14.99;83.42
3440;BME280;1733;42.286;22.690;2023-02-28T11:30:29;96094.25;;;14.71;84.32
3440;BME280;1733;42.286;22.690;2023-02-28T11:32:56;96099.06;;;14.74;83.37
3440;BME280;1733;42.286;22.690;2023-02-28T11:35:25;96093.78;;;14.52;83.96
3440;BME280;1733;42.286;22.690;2023-02-28T11:37:52;96093.34;;;14.60;85.77
3440;BME280;1733;42.286;22.690;2023-02-28T11:40:27;96094.97;;;14.61;85.50
3440;BME280;1733;42.286;22.690;2023-02-28T11:43:03;96088.22;;;14.76;83.62
3440;BME280;1733;42.286;22.690;2023-02-28T11:45:45;96085.56;;;14.76;84.51
3440;BME280;1733;42.286;22.690;2023-02-28T11:48:21;96083.47;;;14.78;84.46
3440;BME280;1733;42.286;22.690;2023-02-28T11:51:08;96079.22;;;14.50;84.91
3440;BME280;1733;42.286;22.690;2023-02-28T11:53:48;96083.19;;;14.52;85.49
3440;BME280;1733;42.286;22.690;2023-02-28T11:56:21;96075.56;;;15.10;85.34
3440;BME280;1733;42.286;22.690;2023-02-28T11:58:58;96069.03;;;15.50;83.51
3440;BME280;1733;42.286;22.690;2023-02-28T12:01:38;96072.44;;;15.82;80.44
3440;BME280;1733;42.286;22.690;2023-02-28T12:04:17;96078.59;;;15.93;79.94
3440;BME280;1733;42.286;22.690;2023-02-28T12:06:55;96066.38;;;15.87;80.25
3440;BME280;1733;42.286;22.690;2023-02-28T12:09:39;96056.97;;;15.69;79.20
3440;BME280;1733;42.286;22.690;2023-02-28T12:12:19;96058.50;;;16.02;80.00
3440;BME280;1733;42.286;22.690;2023-02-28T12:14:56;96061.41;;;15.95;78.05
3440;BME280;1733;42.286;22.690;2023-02-28T12:17:35;96046.69;;;15.40;79.58
3440;BME280;1733;42.286;22.690;2023-02-28T12:20:15;96050.38;;;15.77;79.85
3440;BME280;1733;42.286;22.690;2023-02-28T12:22:51;96049.78;;;16.07;78.77
3440;BME280;1733;42.286;22.690;2023-02-28T12:25:34;96055.09;;;16.12;77.54
3440;BME280;1733;42.286;22.690;2023-02-28T12:28:09;96048.06;;;15.85;78.09
3440;BME280;1733;42.286;22.690;2023-02-28T12:30:42;96047.06;;;15.22;80.62
3440;BME280;1733;42.286;22.690;2023-02-28T12:33:16;96046.84;;;15.61;81.50
3440;BME280;1733;42.286;22.690;2023-02-28T12:35:50;96044.47;;;15.64;79.78
3440;BME280;1733;42.286;22.690;2023-02-28T12:38:20;96046.59;;;15.62;81.25
3440;BME280;1733;42.286;22.690;2023-02-28T12:40:52;96044.84;;;15.78;80.92
3440;BME280;1733;42.286;22.690;2023-02-28T12:43:22;96046.22;;;15.49;79.97
3440;BME280;1733;42.286;22.690;2023-02-28T12:45:54;96038.19;;;15.38;80.48
3440;BME280;1733;42.286;22.690;2023-02-28T12:48:27;96034.53;;;15.44;80.34
3440;BME280;1733;42.286;22.690;2023-02-28T12:50:56;96032.38;;;15.41;81.81
3440;BME280;1733;42.286;22.690;2023-02-28T12:53:30;96030.56;;;15.47;81.31
3440;BME280;1733;42.286;22.690;2023-02-28T12:56:08;96031.56;;;15.73;80.51
3440;BME280;1733;42.286;22.690;2023-02-28T12:58:39;96027.66;;;15.86;80.25
3440;BME280;1733;42.286;22.690;2023-02-28T13:07:14;96021.47;;;15.70;79.11
3440;BME280;1733;42.286;22.690;2023-02-28T13:09:52;96015.19;;;15.86;80.11
3440;BME280;1733;42.286;22.690;2023-02-28T13:12:19;96019.13;;;15.79;79.91
3440;BME280;1733;42.286;22.690;2023-02-28T13:14:48;96014.25;;;16.13;79.53
3440;BME280;1733;42.286;22.690;2023-02-28T13:17:19;96010.81;;;16.17;79.83
3440;BME280;1733;42.286;22.690;2023-02-28T13:19:57;96006.66;;;16.37;80.24
3440;BME280;1733;42.286;22.690;2023-02-28T13:22:46;96002.44;;;16.56;78.54
3440;BME280;1733;42.286;22.690;2023-02-28T13:25:52;96007.31;;;16.95;77.12
3440;BME280;1733;42.286;22.690;2023-02-28T13:31:32;96005.47;;;17.11;76.57
3440;BME280;1733;42.286;22.690;2023-02-28T13:48:23;95992.69;;;16.77;78.51
